TNG weather

Ibn Batouta Airport
Tangier, Tanger Province, Morocco

Public forecast

Using degrees Celsius for public forecast. Weather courtesy of forecast.io.

Current aviation weather report (METAR) for Ibn Batouta Airport

Retrieved 2019/10/15 19:30 UTC (22 minutes ago):

GMTT 151930Z VRB02KT CAVOK 17/09 Q1021 NOSIG

Aviation forecast (TAF) for Ibn Batouta Airport

Retrieved 2019/10/15 18:18 UTC (2 hours ago):

TAF GMTT 151700Z 1518/1624 25009KT CAVOK